sensor_id;sensor_type;location;lat;lon;timestamp;temperature;humidity
6843;DHT22;3460;52.028;8.916;2022-08-19T00:00:15;19.80;99.90
6843;DHT22;3460;52.028;8.916;2022-08-19T00:02:43;19.80;99.90
6843;DHT22;3460;52.028;8.916;2022-08-19T00:05:13;19.80;99.90
6843;DHT22;3460;52.028;8.916;2022-08-19T00:07:41;19.80;99.90
6843;DHT22;3460;52.028;8.916;2022-08-19T00:10:10;19.80;99.90
6843;DHT22;3460;52.028;8.916;2022-08-19T00:12:38;19.90;99.90
6843;DHT22;3460;52.028;8.916;2022-08-19T00:15:08;19.80;99.90
6843;DHT22;3460;52.028;8.916;2022-08-19T00:17:38;19.70;99.90
6843;DHT22;3460;52.028;8.916;2022-08-19T00:20:06;19.70;99.90
6843;DHT22;3460;52.028;8.916;2022-08-19T00:22:33;19.70;99.90
6843;DHT22;3460;52.028;8.916;2022-08-19T00:24:59;19.80;99.90
6843;DHT22;3460;52.028;8.916;2022-08-19T00:27:26;19.80;99.90
6843;DHT22;3460;52.028;8.916;2022-08-19T00:29:53;19.60;99.90
6843;DHT22;3460;52.028;8.916;2022-08-19T00:32:19;19.50;99.90
6843;DHT22;3460;52.028;8.916;2022-08-19T00:34:48;19.50;99.90
6843;DHT22;3460;52.028;8.916;2022-08-19T00:37:14;19.50;99.90
6843;DHT22;3460;52.028;8.916;2022-08-19T00:39:41;19.40;99.90
6843;DHT22;3460;52.028;8.916;2022-08-19T00:42:08;19.30;99.90
6843;DHT22;3460;52.028;8.916;2022-08-19T00:44:34;19.30;99.90
6843;DHT22;3460;52.028;8.916;2022-08-19T00:47:01;19.30;99.90
6843;DHT22;3460;52.028;8.916;2022-08-19T00:49:31;19.20;99.90
6843;DHT22;3460;52.028;8.916;2022-08-19T00:52:04;19.20;99.90
6843;DHT22;3460;52.028;8.916;2022-08-19T00:54:33;19.20;99.90
6843;DHT22;3460;52.028;8.916;2022-08-19T00:57:05;19.10;99.90
6843;DHT22;3460;52.028;8.916;2022-08-19T00:59:34;19.10;99.90
6843;DHT22;3460;52.028;8.916;2022-08-19T01:02:01;19.00;99.90
6843;DHT22;3460;52.028;8.916;2022-08-19T01:04:27;19.10;99.90
6843;DHT22;3460;52.028;8.916;2022-08-19T01:06:55;19.00;99.90
6843;DHT22;3460;52.028;8.916;2022-08-19T01:09:24;19.00;99.90
6843;DHT22;3460;52.028;8.916;2022-08-19T01:11:50;19.00;99.90
6843;DHT22;3460;52.028;8.916;2022-08-19T01:14:18;19.00;99.90
6843;DHT22;3460;52.028;8.916;2022-08-19T01:16:46;19.00;99.90
6843;DHT22;3460;52.028;8.916;2022-08-19T01:19:25;19.00;99.90
6843;DHT22;3460;52.028;8.916;2022-08-19T01:21:57;18.90;99.90
6843;DHT22;3460;52.028;8.916;2022-08-19T01:24:28;18.90;99.90
6843;DHT22;3460;52.028;8.916;2022-08-19T01:26:56;18.90;99.90
6843;DHT22;3460;52.028;8.916;2022-08-19T01:29:23;18.90;99.90
6843;DHT22;3460;52.028;8.916;2022-08-19T01:31:50;18.80;99.90
6843;DHT22;3460;52.028;8.916;2022-08-19T01:34:17;18.80;99.90
6843;DHT22;3460;52.028;8.916;2022-08-19T01:36:46;18.70;99.90
6843;DHT22;3460;52.028;8.916;2022-08-19T01:39:16;18.70;99.90
6843;DHT22;3460;52.028;8.916;2022-08-19T01:41:44;18.60;99.90
6843;DHT22;3460;52.028;8.916;2022-08-19T01:44:11;18.50;99.90
6843;DHT22;3460;52.028;8.916;2022-08-19T01:46:38;18.50;99.90
6843;DHT22;3460;52.028;8.916;2022-08-19T01:49:05;18.50;99.90
6843;DHT22;3460;52.028;8.916;2022-08-19T01:51:32;18.50;99.90
6843;DHT22;3460;52.028;8.916;2022-08-19T01:53:59;18.50;99.90
6843;DHT22;3460;52.028;8.916;2022-08-19T01:56:26;18.40;99.90
6843;DHT22;3460;52.028;8.916;2022-08-19T01:58:55;18.40;99.90
6843;DHT22;3460;52.028;8.916;2022-08-19T02:01:24;18.40;99.90
6843;DHT22;3460;52.028;8.916;2022-08-19T02:03:50;18.40;99.90
6843;DHT22;3460;52.028;8.916;2022-08-19T02:06:18;18.30;99.90
6843;DHT22;3460;52.028;8.916;2022-08-19T02:08:45;18.30;99.90
6843;DHT22;3460;52.028;8.916;2022-08-19T02:11:19;18.20;99.90
6843;DHT22;3460;52.028;8.916;2022-08-19T02:13:46;18.20;99.90
6843;DHT22;3460;52.028;8.916;2022-08-19T02:16:16;18.40;99.90
6843;DHT22;3460;52.028;8.916;2022-08-19T02:18:43;18.30;99.90
6843;DHT22;3460;52.028;8.916;2022-08-19T02:21:09;18.30;99.90
6843;DHT22;3460;52.028;8.916;2022-08-19T02:23:36;18.20;99.90
6843;DHT22;3460;52.028;8.916;2022-08-19T02:26:04;18.10;99.90
6843;DHT22;3460;52.028;8.916;2022-08-19T02:28:30;18.00;99.90
6843;DHT22;3460;52.028;8.916;2022-08-19T02:30:57;18.00;99.90
6843;DHT22;3460;52.028;8.916;2022-08-19T02:33:27;18.00;99.90
6843;DHT22;3460;52.028;8.916;2022-08-19T02:35:54;17.90;99.90
6843;DHT22;3460;52.028;8.916;2022-08-19T02:38:20;17.90;99.90
6843;DHT22;3460;52.028;8.916;2022-08-19T02:40:54;17.90;99.90
6843;DHT22;3460;52.028;8.916;2022-08-19T02:43:22;17.90;99.90
6843;DHT22;3460;52.028;8.916;2022-08-19T02:45:49;17.90;99.90
6843;DHT22;3460;52.028;8.916;2022-08-19T02:48:17;17.90;99.90
6843;DHT22;3460;52.028;8.916;2022-08-19T02:50:46;17.80;99.90
6843;DHT22;3460;52.028;8.916;2022-08-19T02:53:13;17.80;99.90
6843;DHT22;3460;52.028;8.916;2022-08-19T02:55:44;17.80;99.90
6843;DHT22;3460;52.028;8.916;2022-08-19T02:58:11;17.80;99.90
6843;DHT22;3460;52.028;8.916;2022-08-19T03:00:42;17.80;99.90
6843;DHT22;3460;52.028;8.916;2022-08-19T03:03:09;17.70;99.90
6843;DHT22;3460;52.028;8.916;2022-08-19T03:05:36;17.70;99.90
6843;DHT22;3460;52.028;8.916;2022-08-19T03:08:04;17.70;99.90
6843;DHT22;3460;52.028;8.916;2022-08-19T03:10:31;17.60;99.90
6843;DHT22;3460;52.028;8.916;2022-08-19T03:12:57;17.60;99.90
6843;DHT22;3460;52.028;8.916;2022-08-19T03:15:24;17.60;99.90
6843;DHT22;3460;52.028;8.916;2022-08-19T03:17:51;17.60;99.90
6843;DHT22;3460;52.028;8.916;2022-08-19T03:20:18;17.50;99.90
6843;DHT22;3460;52.028;8.916;2022-08-19T03:22:44;17.50;99.90
6843;DHT22;3460;52.028;8.916;2022-08-19T03:25:13;17.50;99.90
6843;DHT22;3460;52.028;8.916;2022-08-19T03:27:39;17.50;99.90
6843;DHT22;3460;52.028;8.916;2022-08-19T03:30:07;17.50;99.90
6843;DHT22;3460;52.028;8.916;2022-08-19T03:32:34;17.40;99.90
6843;DHT22;3460;52.028;8.916;2022-08-19T03:35:00;17.50;99.90
6843;DHT22;3460;52.028;8.916;2022-08-19T03:37:27;17.40;99.90
6843;DHT22;3460;52.028;8.916;2022-08-19T03:39:54;17.40;99.90
6843;DHT22;3460;52.028;8.916;2022-08-19T03:42:22;17.40;99.90
6843;DHT22;3460;52.028;8.916;2022-08-19T03:44:48;17.30;99.90
6843;DHT22;3460;52.028;8.916;2022-08-19T03:47:15;17.30;99.90
6843;DHT22;3460;52.028;8.916;2022-08-19T03:49:42;17.30;99.90
6843;DHT22;3460;52.028;8.916;2022-08-19T03:52:09;17.30;99.90
6843;DHT22;3460;52.028;8.916;2022-08-19T03:54:36;17.40;99.90
6843;DHT22;3460;52.028;8.916;2022-08-19T03:57:04;17.30;99.90
6843;DHT22;3460;52.028;8.916;2022-08-19T03:59:34;17.20;99.90
6843;DHT22;3460;52.028;8.916;2022-08-19T04:02:05;17.10;99.90
6843;DHT22;3460;52.028;8.916;2022-08-19T04:04:34;17.10;99.90
6843;DHT22;3460;52.028;8.916;2022-08-19T04:07:01;17.10;99.90
6843;DHT22;3460;52.028;8.916;2022-08-19T04:09:28;17.10;99.90
6843;DHT22;3460;52.028;8.916;2022-08-19T04:11:56;17.10;99.90
6843;DHT22;3460;52.028;8.916;2022-08-19T04:14:25;17.00;99.90
6843;DHT22;3460;52.028;8.916;2022-08-19T04:16:55;17.00;99.90
6843;DHT22;3460;52.028;8.916;2022-08-19T04:19:22;17.00;99.90
6843;DHT22;3460;52.028;8.916;2022-08-19T04:21:52;17.00;99.90
6843;DHT22;3460;52.028;8.916;2022-08-19T04:24:20;17.00;99.90
6843;DHT22;3460;52.028;8.916;2022-08-19T04:26:48;17.00;99.90
6843;DHT22;3460;52.028;8.916;2022-08-19T04:29:16;17.00;99.90
6843;DHT22;3460;52.028;8.916;2022-08-19T04:31:45;17.00;99.90
6843;DHT22;3460;52.028;8.916;2022-08-19T04:34:15;17.00;99.90
6843;DHT22;3460;52.028;8.916;2022-08-19T04:36:43;17.00;99.90
6843;DHT22;3460;52.028;8.916;2022-08-19T04:39:12;17.10;99.90
6843;DHT22;3460;52.028;8.916;2022-08-19T04:41:39;17.10;99.90
6843;DHT22;3460;52.028;8.916;2022-08-19T04:44:23;17.20;99.90
6843;DHT22;3460;52.028;8.916;2022-08-19T04:46:51;17.20;99.90
6843;DHT22;3460;52.028;8.916;2022-08-19T04:49:21;17.20;99.90
6843;DHT22;3460;52.028;8.916;2022-08-19T04:51:49;17.30;99.90
6843;DHT22;3460;52.028;8.916;2022-08-19T04:54:18;17.30;99.90
6843;DHT22;3460;52.028;8.916;2022-08-19T04:56:45;17.30;99.90
6843;DHT22;3460;52.028;8.916;2022-08-19T04:59:12;17.30;99.90
6843;DHT22;3460;52.028;8.916;2022-08-19T05:01:39;17.20;99.90
6843;DHT22;3460;52.028;8.916;2022-08-19T05:04:06;17.30;99.90
6843;DHT22;3460;52.028;8.916;2022-08-19T05:06:35;17.30;99.90
6843;DHT22;3460;52.028;8.916;2022-08-19T05:09:03;17.30;99.90
6843;DHT22;3460;52.028;8.916;2022-08-19T05:11:33;17.30;99.90
6843;DHT22;3460;52.028;8.916;2022-08-19T05:14:01;17.40;99.90
6843;DHT22;3460;52.028;8.916;2022-08-19T05:16:28;17.40;99.90
6843;DHT22;3460;52.028;8.916;2022-08-19T05:18:54;17.50;99.90
6843;DHT22;3460;52.028;8.916;2022-08-19T05:21:42;17.50;99.90
6843;DHT22;3460;52.028;8.916;2022-08-19T05:24:27;17.50;99.90
6843;DHT22;3460;52.028;8.916;2022-08-19T05:26:55;17.50;99.90
6843;DHT22;3460;52.028;8.916;2022-08-19T05:29:25;17.50;99.90
6843;DHT22;3460;52.028;8.916;2022-08-19T05:31:53;17.60;99.90
6843;DHT22;3460;52.028;8.916;2022-08-19T05:34:22;17.60;99.90
6843;DHT22;3460;52.028;8.916;2022-08-19T05:36:54;17.70;99.90
6843;DHT22;3460;52.028;8.916;2022-08-19T05:39:22;17.60;99.90
6843;DHT22;3460;52.028;8.916;2022-08-19T05:41:52;17.60;99.90
6843;DHT22;3460;52.028;8.916;2022-08-19T05:44:19;17.70;99.90
6843;DHT22;3460;52.028;8.916;2022-08-19T05:46:47;17.70;99.90
6843;DHT22;3460;52.028;8.916;2022-08-19T05:49:15;17.70;99.90
6843;DHT22;3460;52.028;8.916;2022-08-19T05:51:42;17.80;99.90
6843;DHT22;3460;52.028;8.916;2022-08-19T05:54:11;17.70;99.90
6843;DHT22;3460;52.028;8.916;2022-08-19T05:56:39;17.80;99.90
6843;DHT22;3460;52.028;8.916;2022-08-19T05:59:07;17.90;99.90
6843;DHT22;3460;52.028;8.916;2022-08-19T06:01:36;17.80;99.90
6843;DHT22;3460;52.028;8.916;2022-08-19T06:04:04;17.90;99.90
6843;DHT22;3460;52.028;8.916;2022-08-19T06:06:32;17.80;99.90
6843;DHT22;3460;52.028;8.916;2022-08-19T06:08:59;17.80;99.90
6843;DHT22;3460;52.028;8.916;2022-08-19T06:11:34;17.90;99.90
6843;DHT22;3460;52.028;8.916;2022-08-19T06:14:12;17.90;99.90
6843;DHT22;3460;52.028;8.916;2022-08-19T06:16:41;17.90;99.90
6843;DHT22;3460;52.028;8.916;2022-08-19T06:19:11;18.00;99.90
6843;DHT22;3460;52.028;8.916;2022-08-19T06:21:40;18.00;99.90
6843;DHT22;3460;52.028;8.916;2022-08-19T06:24:11;18.00;99.90
6843;DHT22;3460;52.028;8.916;2022-08-19T06:26:43;18.00;99.90
6843;DHT22;3460;52.028;8.916;2022-08-19T06:29:12;18.10;99.90
6843;DHT22;3460;52.028;8.916;2022-08-19T06:31:41;18.10;99.90
6843;DHT22;3460;52.028;8.916;2022-08-19T06:34:08;18.20;99.90
6843;DHT22;3460;52.028;8.916;2022-08-19T06:36:38;18.30;99.90
6843;DHT22;3460;52.028;8.916;2022-08-19T06:39:08;18.20;99.90
6843;DHT22;3460;52.028;8.916;2022-08-19T06:41:37;18.40;99.90
6843;DHT22;3460;52.028;8.916;2022-08-19T06:44:05;18.40;99.90
6843;DHT22;3460;52.028;8.916;2022-08-19T06:46:32;18.50;99.90
6843;DHT22;3460;52.028;8.916;2022-08-19T06:49:00;18.60;99.90
6843;DHT22;3460;52.028;8.916;2022-08-19T06:51:26;18.70;99.90
6843;DHT22;3460;52.028;8.916;2022-08-19T06:53:54;18.60;99.90
6843;DHT22;3460;52.028;8.916;2022-08-19T06:56:25;18.60;99.90
6843;DHT22;3460;52.028;8.916;2022-08-19T06:58:56;18.70;99.90
6843;DHT22;3460;52.028;8.916;2022-08-19T07:01:24;18.80;99.90
6843;DHT22;3460;52.028;8.916;2022-08-19T07:03:51;18.80;99.90
6843;DHT22;3460;52.028;8.916;2022-08-19T07:06:18;18.90;99.90
6843;DHT22;3460;52.028;8.916;2022-08-19T07:08:46;19.00;99.90
6843;DHT22;3460;52.028;8.916;2022-08-19T07:11:15;18.90;99.90
6843;DHT22;3460;52.028;8.916;2022-08-19T07:13:42;18.80;99.90
6843;DHT22;3460;52.028;8.916;2022-08-19T07:16:11;18.80;99.90
6843;DHT22;3460;52.028;8.916;2022-08-19T07:18:40;18.90;99.90
6843;DHT22;3460;52.028;8.916;2022-08-19T07:21:09;19.00;99.90
6843;DHT22;3460;52.028;8.916;2022-08-19T07:23:36;19.20;99.90
6843;DHT22;3460;52.028;8.916;2022-08-19T07:26:05;19.10;99.90
6843;DHT22;3460;52.028;8.916;2022-08-19T07:28:32;19.00;99.90
6843;DHT22;3460;52.028;8.916;2022-08-19T07:30:59;19.10;99.90
6843;DHT22;3460;52.028;8.916;2022-08-19T07:33:27;19.00;99.90
6843;DHT22;3460;52.028;8.916;2022-08-19T07:35:56;19.10;99.90
6843;DHT22;3460;52.028;8.916;2022-08-19T07:38:23;19.10;99.90
6843;DHT22;3460;52.028;8.916;2022-08-19T07:40:50;19.20;99.90
6843;DHT22;3460;52.028;8.916;2022-08-19T07:43:17;19.20;99.90
6843;DHT22;3460;52.028;8.916;2022-08-19T07:45:46;19.30;99.90
6843;DHT22;3460;52.028;8.916;2022-08-19T07:48:13;19.40;99.90
6843;DHT22;3460;52.028;8.916;2022-08-19T07:50:40;19.60;99.90
6843;DHT22;3460;52.028;8.916;2022-08-19T07:53:08;19.80;99.90
6843;DHT22;3460;52.028;8.916;2022-08-19T07:55:34;20.00;99.90
6843;DHT22;3460;52.028;8.916;2022-08-19T07:58:01;20.30;99.90
6843;DHT22;3460;52.028;8.916;2022-08-19T08:00:30;20.40;99.90
6843;DHT22;3460;52.028;8.916;2022-08-19T08:02:57;20.60;99.90
6843;DHT22;3460;52.028;8.916;2022-08-19T08:05:24;20.80;99.90
6843;DHT22;3460;52.028;8.916;2022-08-19T08:08:10;20.90;99.90
6843;DHT22;3460;52.028;8.916;2022-08-19T08:11:02;21.00;99.90
6843;DHT22;3460;52.028;8.916;2022-08-19T08:13:29;21.20;99.90
6843;DHT22;3460;52.028;8.916;2022-08-19T08:15:56;21.40;99.90
6843;DHT22;3460;52.028;8.916;2022-08-19T08:18:23;21.40;99.90
6843;DHT22;3460;52.028;8.916;2022-08-19T08:20:50;21.60;99.90
6843;DHT22;3460;52.028;8.916;2022-08-19T08:23:18;21.80;99.90
6843;DHT22;3460;52.028;8.916;2022-08-19T08:25:53;21.80;99.90
6843;DHT22;3460;52.028;8.916;2022-08-19T08:28:21;21.80;99.90
6843;DHT22;3460;52.028;8.916;2022-08-19T08:30:49;21.70;99.90
6843;DHT22;3460;52.028;8.916;2022-08-19T08:33:18;21.80;99.90
6843;DHT22;3460;52.028;8.916;2022-08-19T08:35:45;21.60;99.90
6843;DHT22;3460;52.028;8.916;2022-08-19T08:38:13;21.50;99.90
6843;DHT22;3460;52.028;8.916;2022-08-19T08:40:46;21.50;99.90
6843;DHT22;3460;52.028;8.916;2022-08-19T08:43:22;21.60;99.90
6843;DHT22;3460;52.028;8.916;2022-08-19T08:45:55;21.80;99.90
6843;DHT22;3460;52.028;8.916;2022-08-19T08:48:24;22.10;99.90
6843;DHT22;3460;52.028;8.916;2022-08-19T08:50:54;22.40;99.90
6843;DHT22;3460;52.028;8.916;2022-08-19T08:53:21;22.50;99.90
6843;DHT22;3460;52.028;8.916;2022-08-19T08:55:50;22.70;99.90
6843;DHT22;3460;52.028;8.916;2022-08-19T08:58:20;22.90;99.90
6843;DHT22;3460;52.028;8.916;2022-08-19T09:00:50;22.80;99.90
6843;DHT22;3460;52.028;8.916;2022-08-19T09:03:20;22.80;99.90
6843;DHT22;3460;52.028;8.916;2022-08-19T09:05:56;22.70;99.90
6843;DHT22;3460;52.028;8.916;2022-08-19T09:08:34;22.70;99.90
6843;DHT22;3460;52.028;8.916;2022-08-19T09:11:07;22.90;99.90
6843;DHT22;3460;52.028;8.916;2022-08-19T09:13:42;23.00;99.90
6843;DHT22;3460;52.028;8.916;2022-08-19T09:16:16;23.20;99.90
6843;DHT22;3460;52.028;8.916;2022-08-19T09:18:45;23.40;99.90
6843;DHT22;3460;52.028;8.916;2022-08-19T09:21:12;23.50;99.90
6843;DHT22;3460;52.028;8.916;2022-08-19T09:23:39;23.70;99.90
6843;DHT22;3460;52.028;8.916;2022-08-19T09:26:09;23.70;99.90
6843;DHT22;3460;52.028;8.916;2022-08-19T09:28:39;23.80;99.90
6843;DHT22;3460;52.028;8.916;2022-08-19T09:31:08;23.80;99.90
6843;DHT22;3460;52.028;8.916;2022-08-19T09:33:35;23.80;99.90
6843;DHT22;3460;52.028;8.916;2022-08-19T09:36:04;23.90;99.90
6843;DHT22;3460;52.028;8.916;2022-08-19T09:38:32;24.00;99.90
6843;DHT22;3460;52.028;8.916;2022-08-19T09:41:03;23.80;99.90
6843;DHT22;3460;52.028;8.916;2022-08-19T09:43:31;23.70;99.90
6843;DHT22;3460;52.028;8.916;2022-08-19T09:45:58;24.00;99.90
6843;DHT22;3460;52.028;8.916;2022-08-19T09:48:25;24.20;99.90
6843;DHT22;3460;52.028;8.916;2022-08-19T09:50:52;24.30;99.90
6843;DHT22;3460;52.028;8.916;2022-08-19T09:53:20;24.30;99.90
6843;DHT22;3460;52.028;8.916;2022-08-19T09:55:48;24.20;99.90
6843;DHT22;3460;52.028;8.916;2022-08-19T09:58:15;24.40;99.90
6843;DHT22;3460;52.028;8.916;2022-08-19T10:00:43;24.60;99.90
6843;DHT22;3460;52.028;8.916;2022-08-19T10:03:11;24.70;99.90
6843;DHT22;3460;52.028;8.916;2022-08-19T10:05:37;24.90;99.90
6843;DHT22;3460;52.028;8.916;2022-08-19T10:08:18;24.90;99.90
6843;DHT22;3460;52.028;8.916;2022-08-19T10:10:46;24.70;99.90
6843;DHT22;3460;52.028;8.916;2022-08-19T10:13:14;24.80;99.90
6843;DHT22;3460;52.028;8.916;2022-08-19T10:15:43;24.70;99.90
6843;DHT22;3460;52.028;8.916;2022-08-19T10:18:10;24.70;99.90
6843;DHT22;3460;52.028;8.916;2022-08-19T10:20:36;24.90;99.90
6843;DHT22;3460;52.028;8.916;2022-08-19T10:23:03;25.00;99.90
6843;DHT22;3460;52.028;8.916;2022-08-19T10:25:31;25.10;99.90
6843;DHT22;3460;52.028;8.916;2022-08-19T10:27:59;25.30;99.90
6843;DHT22;3460;52.028;8.916;2022-08-19T10:30:25;25.40;99.90
6843;DHT22;3460;52.028;8.916;2022-08-19T10:32:54;25.30;99.90
6843;DHT22;3460;52.028;8.916;2022-08-19T10:35:21;25.40;99.90
6843;DHT22;3460;52.028;8.916;2022-08-19T10:37:47;25.40;99.90
6843;DHT22;3460;52.028;8.916;2022-08-19T10:40:14;25.40;99.90
6843;DHT22;3460;52.028;8.916;2022-08-19T10:42:41;25.30;99.90
6843;DHT22;3460;52.028;8.916;2022-08-19T10:45:08;25.30;99.90
6843;DHT22;3460;52.028;8.916;2022-08-19T10:47:35;25.20;99.90
6843;DHT22;3460;52.028;8.916;2022-08-19T10:50:04;25.40;99.90
6843;DHT22;3460;52.028;8.916;2022-08-19T10:52:49;25.60;99.90
6843;DHT22;3460;52.028;8.916;2022-08-19T10:55:18;25.50;99.90
6843;DHT22;3460;52.028;8.916;2022-08-19T10:58:02;25.60;99.90
6843;DHT22;3460;52.028;8.916;2022-08-19T11:00:29;25.80;99.90
6843;DHT22;3460;52.028;8.916;2022-08-19T11:02:56;25.90;99.90
6843;DHT22;3460;52.028;8.916;2022-08-19T11:05:24;25.90;99.90
6843;DHT22;3460;52.028;8.916;2022-08-19T11:07:51;26.10;99.90
6843;DHT22;3460;52.028;8.916;2022-08-19T11:10:17;26.00;99.90
6843;DHT22;3460;52.028;8.916;2022-08-19T11:12:45;26.10;99.90
6843;DHT22;3460;52.028;8.916;2022-08-19T11:15:13;26.10;99.90
6843;DHT22;3460;52.028;8.916;2022-08-19T11:17:40;26.10;99.90
6843;DHT22;3460;52.028;8.916;2022-08-19T11:20:09;26.00;99.90
6843;DHT22;3460;52.028;8.916;2022-08-19T11:22:37;26.20;99.90
6843;DHT22;3460;52.028;8.916;2022-08-19T11:25:05;26.10;99.90
6843;DHT22;3460;52.028;8.916;2022-08-19T11:27:31;26.10;99.90
6843;DHT22;3460;52.028;8.916;2022-08-19T11:29:59;26.30;99.90
6843;DHT22;3460;52.028;8.916;2022-08-19T11:32:25;26.30;99.90
6843;DHT22;3460;52.028;8.916;2022-08-19T11:34:52;26.20;99.90
6843;DHT22;3460;52.028;8.916;2022-08-19T11:37:19;26.40;99.90
6843;DHT22;3460;52.028;8.916;2022-08-19T11:39:47;26.10;99.90
6843;DHT22;3460;52.028;8.916;2022-08-19T11:42:14;26.20;99.90
6843;DHT22;3460;52.028;8.916;2022-08-19T11:44:58;26.40;99.90
6843;DHT22;3460;52.028;8.916;2022-08-19T11:47:26;26.30;99.90
6843;DHT22;3460;52.028;8.916;2022-08-19T11:49:52;26.40;99.90
6843;DHT22;3460;52.028;8.916;2022-08-19T11:52:19;26.30;99.90
6843;DHT22;3460;52.028;8.916;2022-08-19T11:54:47;26.30;99.90
6843;DHT22;3460;52.028;8.916;2022-08-19T11:57:14;26.30;99.90
6843;DHT22;3460;52.028;8.916;2022-08-19T11:59:42;26.20;99.90
6843;DHT22;3460;52.028;8.916;2022-08-19T12:02:09;26.30;99.90
6843;DHT22;3460;52.028;8.916;2022-08-19T12:04:36;26.40;99.90
6843;DHT22;3460;52.028;8.916;2022-08-19T12:07:03;26.50;99.90
6843;DHT22;3460;52.028;8.916;2022-08-19T12:09:30;26.60;99.90
6843;DHT22;3460;52.028;8.916;2022-08-19T12:11:58;26.70;99.90
6843;DHT22;3460;52.028;8.916;2022-08-19T12:14:26;26.90;99.90
6843;DHT22;3460;52.028;8.916;2022-08-19T12:16:53;26.80;99.90
6843;DHT22;3460;52.028;8.916;2022-08-19T12:19:20;26.90;99.90
6843;DHT22;3460;52.028;8.916;2022-08-19T12:21:46;27.00;99.90
6843;DHT22;3460;52.028;8.916;2022-08-19T12:24:13;26.90;99.90
6843;DHT22;3460;52.028;8.916;2022-08-19T12:26:40;27.00;99.90
6843;DHT22;3460;52.028;8.916;2022-08-19T12:29:09;26.90;99.90
6843;DHT22;3460;52.028;8.916;2022-08-19T12:31:35;26.70;99.90
6843;DHT22;3460;52.028;8.916;2022-08-19T12:34:02;26.60;99.90
6843;DHT22;3460;52.028;8.916;2022-08-19T12:36:29;26.70;99.90
6843;DHT22;3460;52.028;8.916;2022-08-19T12:38:57;26.80;99.90
6843;DHT22;3460;52.028;8.916;2022-08-19T12:41:24;27.00;99.90
6843;DHT22;3460;52.028;8.916;2022-08-19T12:43:50;27.00;99.90
6843;DHT22;3460;52.028;8.916;2022-08-19T12:46:19;26.70;99.90
6843;DHT22;3460;52.028;8.916;2022-08-19T12:48:46;26.70;99.90
6843;DHT22;3460;52.028;8.916;2022-08-19T12:51:15;26.90;99.90
6843;DHT22;3460;52.028;8.916;2022-08-19T12:53:43;26.90;99.90
6843;DHT22;3460;52.028;8.916;2022-08-19T12:56:11;27.00;99.90
6843;DHT22;3460;52.028;8.916;2022-08-19T12:58:40;26.90;99.90
6843;DHT22;3460;52.028;8.916;2022-08-19T13:01:08;26.80;99.90
6843;DHT22;3460;52.028;8.916;2022-08-19T13:03:37;26.80;99.90
6843;DHT22;3460;52.028;8.916;2022-08-19T13:06:04;26.70;99.90
6843;DHT22;3460;52.028;8.916;2022-08-19T13:08:31;26.60;99.90
6843;DHT22;3460;52.028;8.916;2022-08-19T13:10:57;26.70;99.90
6843;DHT22;3460;52.028;8.916;2022-08-19T13:13:32;26.80;99.90
6843;DHT22;3460;52.028;8.916;2022-08-19T13:16:00;26.80;99.90
6843;DHT22;3460;52.028;8.916;2022-08-19T13:18:28;26.90;99.90
6843;DHT22;3460;52.028;8.916;2022-08-19T13:20:56;26.90;99.90
6843;DHT22;3460;52.028;8.916;2022-08-19T13:23:22;27.00;99.90
6843;DHT22;3460;52.028;8.916;2022-08-19T13:25:56;27.00;99.90
6843;DHT22;3460;52.028;8.916;2022-08-19T13:28:23;27.00;99.90
6843;DHT22;3460;52.028;8.916;2022-08-19T13:30:49;27.10;99.90
6843;DHT22;3460;52.028;8.916;2022-08-19T13:33:34;27.00;99.90
6843;DHT22;3460;52.028;8.916;2022-08-19T13:36:02;26.90;99.90
6843;DHT22;3460;52.028;8.916;2022-08-19T13:38:33;26.90;99.90
6843;DHT22;3460;52.028;8.916;2022-08-19T13:41:05;27.10;99.90
6843;DHT22;3460;52.028;8.916;2022-08-19T13:43:31;27.10;99.90
6843;DHT22;3460;52.028;8.916;2022-08-19T13:45:58;27.10;99.90
6843;DHT22;3460;52.028;8.916;2022-08-19T13:48:26;27.10;99.90
6843;DHT22;3460;52.028;8.916;2022-08-19T13:50:53;27.00;99.90
6843;DHT22;3460;52.028;8.916;2022-08-19T13:53:21;26.90;99.90
6843;DHT22;3460;52.028;8.916;2022-08-19T13:55:47;26.90;99.90
6843;DHT22;3460;52.028;8.916;2022-08-19T13:58:15;27.00;99.90
6843;DHT22;3460;52.028;8.916;2022-08-19T14:00:45;27.10;99.90
6843;DHT22;3460;52.028;8.916;2022-08-19T14:03:11;27.00;99.90
6843;DHT22;3460;52.028;8.916;2022-08-19T14:05:39;27.20;99.90
6843;DHT22;3460;52.028;8.916;2022-08-19T14:08:05;27.20;99.90
6843;DHT22;3460;52.028;8.916;2022-08-19T14:10:34;27.20;99.90
6843;DHT22;3460;52.028;8.916;2022-08-19T14:13:03;27.20;99.90
6843;DHT22;3460;52.028;8.916;2022-08-19T14:15:30;27.30;99.90
6843;DHT22;3460;52.028;8.916;2022-08-19T14:17:58;27.40;99.90
6843;DHT22;3460;52.028;8.916;2022-08-19T14:20:25;27.50;99.90
6843;DHT22;3460;52.028;8.916;2022-08-19T14:22:52;27.40;99.90
6843;DHT22;3460;52.028;8.916;2022-08-19T14:25:21;27.20;99.90
6843;DHT22;3460;52.028;8.916;2022-08-19T14:27:50;27.00;99.90
6843;DHT22;3460;52.028;8.916;2022-08-19T14:30:19;26.80;99.90
6843;DHT22;3460;52.028;8.916;2022-08-19T14:32:46;26.70;99.90
6843;DHT22;3460;52.028;8.916;2022-08-19T14:35:15;26.60;99.90
6843;DHT22;3460;52.028;8.916;2022-08-19T14:37:43;26.40;99.90
6843;DHT22;3460;52.028;8.916;2022-08-19T14:40:11;26.40;99.90
6843;DHT22;3460;52.028;8.916;2022-08-19T14:42:38;26.50;99.90
6843;DHT22;3460;52.028;8.916;2022-08-19T14:45:07;26.70;99.90
6843;DHT22;3460;52.028;8.916;2022-08-19T14:47:34;26.80;99.90
6843;DHT22;3460;52.028;8.916;2022-08-19T14:50:01;26.70;99.90
6843;DHT22;3460;52.028;8.916;2022-08-19T14:52:27;26.70;99.90
6843;DHT22;3460;52.028;8.916;2022-08-19T14:54:54;26.80;99.90
6843;DHT22;3460;52.028;8.916;2022-08-19T14:57:20;26.70;99.90
6843;DHT22;3460;52.028;8.916;2022-08-19T14:59:48;26.70;99.90
6843;DHT22;3460;52.028;8.916;2022-08-19T15:02:16;26.70;99.90
6843;DHT22;3460;52.028;8.916;2022-08-19T15:04:43;26.60;99.90
6843;DHT22;3460;52.028;8.916;2022-08-19T15:07:10;26.50;99.90
6843;DHT22;3460;52.028;8.916;2022-08-19T15:09:36;26.50;99.90
6843;DHT22;3460;52.028;8.916;2022-08-19T15:12:03;26.50;99.90
6843;DHT22;3460;52.028;8.916;2022-08-19T15:14:31;26.50;99.90
6843;DHT22;3460;52.028;8.916;2022-08-19T15:17:01;26.60;99.90
6843;DHT22;3460;52.028;8.916;2022-08-19T15:19:29;26.60;99.90
6843;DHT22;3460;52.028;8.916;2022-08-19T15:21:57;26.50;99.90
6843;DHT22;3460;52.028;8.916;2022-08-19T15:24:24;26.50;99.90
6843;DHT22;3460;52.028;8.916;2022-08-19T15:26:52;26.50;99.90
6843;DHT22;3460;52.028;8.916;2022-08-19T15:29:21;26.70;99.90
6843;DHT22;3460;52.028;8.916;2022-08-19T15:31:49;26.70;99.90
6843;DHT22;3460;52.028;8.916;2022-08-19T15:34:16;26.80;99.90
6843;DHT22;3460;52.028;8.916;2022-08-19T15:36:44;27.00;99.90
6843;DHT22;3460;52.028;8.916;2022-08-19T15:39:11;26.90;99.90
6843;DHT22;3460;52.028;8.916;2022-08-19T15:41:37;26.80;99.90
6843;DHT22;3460;52.028;8.916;2022-08-19T15:44:09;26.80;99.90
6843;DHT22;3460;52.028;8.916;2022-08-19T15:46:37;26.60;99.90
6843;DHT22;3460;52.028;8.916;2022-08-19T15:49:06;26.40;99.90
6843;DHT22;3460;52.028;8.916;2022-08-19T15:51:34;26.40;99.90
6843;DHT22;3460;52.028;8.916;2022-08-19T15:54:03;26.20;99.90
6843;DHT22;3460;52.028;8.916;2022-08-19T15:56:30;26.30;99.90
6843;DHT22;3460;52.028;8.916;2022-08-19T15:59:26;26.30;99.90
6843;DHT22;3460;52.028;8.916;2022-08-19T16:02:07;26.30;99.90
6843;DHT22;3460;52.028;8.916;2022-08-19T16:04:51;26.30;99.90
6843;DHT22;3460;52.028;8.916;2022-08-19T16:07:36;26.40;99.90
6843;DHT22;3460;52.028;8.916;2022-08-19T16:10:06;26.40;99.90